createdAt,value
2017-11-11T00:01:34.369Z,8.70
2017-11-11T00:04:02.194Z,8.70
2017-11-11T00:06:31.812Z,8.70
2017-11-11T00:09:01.963Z,8.60
2017-11-11T00:11:34.377Z,8.70
2017-11-11T00:14:02.712Z,8.70
2017-11-11T00:16:32.437Z,8.60
2017-11-11T00:19:04.521Z,8.50
2017-11-11T00:21:34.362Z,8.50
2017-11-11T00:24:05.312Z,8.50
2017-11-11T00:26:36.398Z,8.40
2017-11-11T00:31:42.554Z,8.60
2017-11-11T00:34:10.180Z,8.60
2017-11-11T00:36:37.900Z,8.60
2017-11-11T00:39:09.232Z,8.60
2017-11-11T00:41:39.250Z,8.60
2017-11-11T00:44:06.803Z,8.60
2017-11-11T00:46:36.251Z,8.60
2017-11-11T00:49:05.390Z,8.60
2017-11-11T00:51:35.765Z,8.60
2017-11-11T00:54:05.698Z,8.60
2017-11-11T00:56:35.454Z,8.60
2017-11-11T00:59:07.831Z,8.60
2017-11-11T01:01:35.861Z,8.60
2017-11-11T01:04:06.662Z,8.70
2017-11-11T01:06:35.896Z,8.60
2017-11-11T01:09:05.680Z,8.70
2017-11-11T01:11:34.809Z,8.60
2017-11-11T01:14:09.585Z,8.50
2017-11-11T01:16:43.298Z,8.50
2017-11-11T01:19:10.924Z,8.60
2017-11-11T01:21:40.490Z,8.50
2017-11-11T01:24:08.032Z,8.60
2017-11-11T01:26:35.829Z,8.60
2017-11-11T01:29:05.816Z,8.50
2017-11-11T01:31:36.815Z,8.50
2017-11-11T01:34:05.724Z,8.50
2017-11-11T01:36:36.407Z,8.50
2017-11-11T01:39:05.816Z,8.50
2017-11-11T01:41:36.460Z,8.40
2017-11-11T01:44:05.643Z,8.30
2017-11-11T01:46:38.039Z,8.30
2017-11-11T01:49:07.284Z,8.30
2017-11-11T01:51:36.939Z,8.30
2017-11-11T01:54:06.315Z,8.30
2017-11-11T01:56:34.875Z,8.30
2017-11-11T01:59:04.489Z,8.30
2017-11-11T02:01:34.498Z,8.30
2017-11-11T02:04:04.497Z,8.20
2017-11-11T02:06:34.081Z,8.20
2017-11-11T02:09:02.218Z,8.10
2017-11-11T02:11:33.118Z,8.10
2017-11-11T02:14:03.655Z,8.10
2017-11-11T02:16:31.402Z,8.00
2017-11-11T02:19:02.024Z,8.10
2017-11-11T02:21:31.335Z,8.20
2017-11-11T02:24:00.057Z,8.10
2017-11-11T02:26:31.184Z,8.10
2017-11-11T02:28:59.250Z,8.00
2017-11-11T02:31:32.041Z,8.00
2017-11-11T02:34:01.810Z,8.00
2017-11-11T02:36:31.731Z,8.00
2017-11-11T02:38:59.925Z,7.90
2017-11-11T02:41:30.494Z,8.00
2017-11-11T02:44:01.262Z,7.90
2017-11-11T02:46:31.639Z,7.80
2017-11-11T02:48:59.594Z,7.80
2017-11-11T02:51:30.025Z,7.80
2017-11-11T02:54:00.380Z,7.80
2017-11-11T02:56:31.424Z,7.70
2017-11-11T02:59:00.629Z,7.70
2017-11-11T03:01:33.342Z,7.70
2017-11-11T03:04:03.826Z,7.70
2017-11-11T03:06:33.909Z,7.70
2017-11-11T03:09:07.220Z,7.70
2017-11-11T03:11:36.147Z,7.70
2017-11-11T03:14:06.693Z,7.60
2017-11-11T03:16:36.536Z,7.70
2017-11-11T03:19:04.949Z,7.60
2017-11-11T03:21:33.574Z,7.70
2017-11-11T03:24:04.548Z,7.60
2017-11-11T03:26:34.957Z,7.60
2017-11-11T03:29:08.042Z,7.60
2017-11-11T03:31:36.113Z,7.60
2017-11-11T03:34:08.324Z,7.60
2017-11-11T03:36:36.078Z,7.60
2017-11-11T03:39:06.022Z,7.50
2017-11-11T03:41:35.608Z,7.50
2017-11-11T03:44:05.058Z,7.50
2017-11-11T03:46:35.017Z,7.50
2017-11-11T03:49:04.585Z,7.50
2017-11-11T03:51:33.878Z,7.50
2017-11-11T03:54:02.957Z,7.40
2017-11-11T03:56:34.325Z,7.50
2017-11-11T03:59:04.816Z,7.30
2017-11-11T04:01:34.845Z,7.30
2017-11-11T04:04:06.406Z,7.30
2017-11-11T04:06:35.116Z,7.30
2017-11-11T04:09:05.630Z,7.20
2017-11-11T04:11:35.622Z,7.20
2017-11-11T04:14:06.157Z,7.30
2017-11-11T04:16:35.722Z,7.40
2017-11-11T04:19:05.605Z,7.30
2017-11-11T04:21:36.740Z,7.30
2017-11-11T04:24:04.682Z,7.20
2017-11-11T04:26:32.725Z,7.20
2017-11-11T04:29:04.239Z,7.20
2017-11-11T04:31:35.025Z,7.20
2017-11-11T04:34:04.070Z,7.20
2017-11-11T04:36:32.297Z,7.20
2017-11-11T04:39:01.549Z,7.30
2017-11-11T04:41:29.975Z,7.20
2017-11-11T04:43:58.965Z,7.30
2017-11-11T04:46:28.986Z,7.30
2017-11-11T04:49:00.867Z,7.30
2017-11-11T04:51:33.012Z,7.30
2017-11-11T04:54:04.704Z,7.30
2017-11-11T04:56:35.832Z,7.50
2017-11-11T04:59:08.956Z,7.40
2017-11-11T05:01:37.745Z,7.40
2017-11-11T05:04:07.605Z,7.40
2017-11-11T05:06:37.033Z,7.30
2017-11-11T05:09:06.244Z,7.30
2017-11-11T05:11:38.904Z,7.30
2017-11-11T05:14:07.243Z,7.30
2017-11-11T05:16:35.788Z,7.30
2017-11-11T05:19:05.948Z,7.40
2017-11-11T05:21:35.149Z,7.40
2017-11-11T05:24:06.384Z,7.50
2017-11-11T05:26:35.773Z,7.50
2017-11-11T05:29:05.684Z,7.60
2017-11-11T05:31:35.155Z,7.70
2017-11-11T05:34:07.027Z,7.60
2017-11-11T05:36:35.816Z,7.60
2017-11-11T05:39:05.767Z,7.70
2017-11-11T05:41:36.256Z,7.70
2017-11-11T05:44:06.360Z,7.70
2017-11-11T05:46:35.524Z,7.70
2017-11-11T05:49:03.619Z,7.90
2017-11-11T05:51:37.124Z,7.90
2017-11-11T05:54:05.170Z,7.90
2017-11-11T05:56:35.868Z,7.90
2017-11-11T05:59:06.631Z,8.00
2017-11-11T06:01:36.033Z,8.00
2017-11-11T06:04:06.812Z,8.00
2017-11-11T06:06:36.053Z,8.00
2017-11-11T06:09:07.154Z,8.00
2017-11-11T06:11:36.542Z,8.00
2017-11-11T06:14:06.226Z,8.00
2017-11-11T06:16:35.623Z,8.10
2017-11-11T06:19:04.440Z,8.10
2017-11-11T06:21:33.081Z,8.10
2017-11-11T06:24:05.619Z,8.20
2017-11-11T06:26:35.976Z,8.10
2017-11-11T06:29:03.962Z,8.20
2017-11-11T06:31:35.210Z,8.20
2017-11-11T06:34:05.854Z,8.20
2017-11-11T06:36:36.311Z,8.30
2017-11-11T06:39:06.129Z,8.30
2017-11-11T06:41:36.528Z,8.30
2017-11-11T06:44:08.568Z,8.30
2017-11-11T06:46:41.364Z,8.20
2017-11-11T06:49:11.974Z,8.20
2017-11-11T06:51:39.550Z,8.30
2017-11-11T06:54:09.722Z,8.40
2017-11-11T06:56:40.424Z,8.40
2017-11-11T06:59:07.966Z,8.40
2017-11-11T07:01:38.009Z,8.40
2017-11-11T07:04:08.391Z,8.40
2017-11-11T07:06:36.697Z,8.40
2017-11-11T07:09:05.366Z,8.40
2017-11-11T07:11:34.134Z,8.40
2017-11-11T07:14:02.866Z,8.40
2017-11-11T07:16:32.886Z,8.30
2017-11-11T07:19:12.435Z,8.40
2017-11-11T07:21:40.835Z,8.40
2017-11-11T07:24:08.404Z,8.50
2017-11-11T07:26:35.927Z,8.50
2017-11-11T07:29:04.293Z,8.60
2017-11-11T07:31:32.181Z,8.60
2017-11-11T07:33:59.924Z,8.60
2017-11-11T07:36:27.689Z,8.70
2017-11-11T07:38:56.400Z,8.70
2017-11-11T07:41:24.368Z,8.80
2017-11-11T07:43:53.696Z,8.80
2017-11-11T07:46:22.080Z,8.80
2017-11-11T07:48:50.710Z,8.80
2017-11-11T07:51:19.371Z,8.80
2017-11-11T07:53:47.109Z,8.90
2017-11-11T07:56:14.641Z,8.90
2017-11-11T07:58:45.918Z,8.90
2017-11-11T08:01:14.832Z,8.80
2017-11-11T08:03:43.280Z,8.90
2017-11-11T08:06:10.848Z,9.00
2017-11-11T08:08:38.379Z,9.00
2017-11-11T08:11:08.878Z,9.10
2017-11-11T08:13:36.400Z,9.10
2017-11-11T08:16:05.213Z,9.10
2017-11-11T08:18:35.685Z,9.00
2017-11-11T08:21:03.276Z,9.00
2017-11-11T08:23:36.726Z,9.10
2017-11-11T08:26:05.285Z,9.10
2017-11-11T08:28:33.342Z,9.20
2017-11-11T08:31:01.598Z,9.20
2017-11-11T08:33:29.512Z,9.20
2017-11-11T08:35:59.412Z,9.20
2017-11-11T08:38:28.100Z,9.10
2017-11-11T08:40:56.315Z,9.10
2017-11-11T08:43:25.037Z,9.00
2017-11-11T08:45:56.251Z,9.00
2017-11-11T08:48:28.096Z,9.00
2017-11-11T08:50:56.791Z,9.00
2017-11-11T08:53:24.972Z,9.00
2017-11-11T08:55:59.788Z,9.00
2017-11-11T08:58:31.078Z,9.00
2017-11-11T09:01:01.373Z,8.90
2017-11-11T09:03:30.282Z,8.80
2017-11-11T09:05:58.926Z,8.80
2017-11-11T09:08:29.249Z,8.80
2017-11-11T09:10:59.018Z,8.80
2017-11-11T09:13:27.429Z,8.80
2017-11-11T09:15:57.696Z,8.80
2017-11-11T09:18:25.565Z,8.70
2017-11-11T09:20:54.870Z,8.70
2017-11-11T09:23:23.964Z,8.60
2017-11-11T09:25:51.704Z,8.60
2017-11-11T09:28:22.134Z,8.60
2017-11-11T09:30:51.726Z,8.60
2017-11-11T09:33:20.290Z,8.60
2017-11-11T09:35:47.981Z,8.40
2017-11-11T09:38:16.504Z,8.30
2017-11-11T09:40:44.815Z,8.30
2017-11-11T09:43:12.341Z,8.30
2017-11-11T09:45:39.900Z,8.30
2017-11-11T09:48:07.440Z,8.20
2017-11-11T09:50:35.765Z,8.30
2017-11-11T09:53:03.293Z,8.20
2017-11-11T09:55:31.742Z,8.30
2017-11-11T09:57:59.486Z,8.30
2017-11-11T10:00:28.219Z,8.30
2017-11-11T10:02:56.405Z,8.30
2017-11-11T10:05:25.125Z,8.20
2017-11-11T10:07:53.806Z,8.20
2017-11-11T10:10:24.266Z,8.20
2017-11-11T10:12:55.599Z,8.20
2017-11-11T10:15:26.215Z,8.30
2017-11-11T10:17:55.896Z,8.30
2017-11-11T10:20:24.987Z,8.30
2017-11-11T10:22:54.196Z,8.30
2017-11-11T10:25:23.333Z,8.30
2017-11-11T10:27:53.756Z,8.20
2017-11-11T10:30:22.670Z,8.20
2017-11-11T10:32:52.495Z,8.20
2017-11-11T10:35:23.039Z,8.20
2017-11-11T10:37:52.927Z,8.20
2017-11-11T10:40:22.493Z,8.10
2017-11-11T10:42:53.862Z,8.10
2017-11-11T10:45:22.571Z,8.10
2017-11-11T10:47:52.932Z,8.10
2017-11-11T10:50:23.348Z,8.10
2017-11-11T10:52:54.346Z,8.10
2017-11-11T10:55:25.712Z,8.00
2017-11-11T10:57:55.493Z,8.00
2017-11-11T11:00:26.326Z,8.00
2017-11-11T11:02:55.382Z,8.00
2017-11-11T11:05:25.873Z,8.00
2017-11-11T11:07:56.702Z,8.00
2017-11-11T11:10:26.048Z,8.00
2017-11-11T11:12:55.337Z,8.00
2017-11-11T11:15:27.470Z,8.00
2017-11-11T11:17:55.701Z,8.00
2017-11-11T11:20:27.494Z,8.00
2017-11-11T11:22:57.160Z,8.00
2017-11-11T11:25:26.122Z,8.00
2017-11-11T11:27:54.713Z,8.00
2017-11-11T11:30:24.415Z,8.00
2017-11-11T11:32:55.753Z,7.90
2017-11-11T11:35:25.887Z,7.90
2017-11-11T11:37:55.374Z,7.90
2017-11-11T11:40:26.150Z,7.90
2017-11-11T11:42:57.507Z,8.00
2017-11-11T11:45:27.200Z,8.00
2017-11-11T11:47:59.887Z,8.00
2017-11-11T11:50:27.933Z,8.00
2017-11-11T11:52:56.590Z,8.10
2017-11-11T11:55:26.140Z,8.10
2017-11-11T11:57:54.806Z,8.10
2017-11-11T12:00:23.728Z,8.10
2017-11-11T12:02:53.587Z,8.20
2017-11-11T12:05:24.904Z,8.10
2017-11-11T12:07:56.191Z,8.20
2017-11-11T12:10:25.958Z,8.20
2017-11-11T12:12:56.919Z,8.30
2017-11-11T12:15:27.611Z,8.30
2017-11-11T12:17:55.488Z,8.30
2017-11-11T12:20:25.085Z,8.40
2017-11-11T12:22:55.065Z,8.40
2017-11-11T12:25:24.471Z,8.50
2017-11-11T12:27:54.417Z,8.50
2017-11-11T12:30:24.489Z,8.50
2017-11-11T12:32:57.004Z,8.50
2017-11-11T12:35:25.716Z,8.50
2017-11-11T12:37:54.715Z,8.60
2017-11-11T12:40:23.956Z,8.50
2017-11-11T12:42:54.088Z,8.50
2017-11-11T12:45:26.178Z,8.60
2017-11-11T12:47:56.274Z,8.60
2017-11-11T12:50:25.509Z,8.60
2017-11-11T12:52:57.242Z,8.60
2017-11-11T12:55:27.132Z,8.60
2017-11-11T12:57:56.409Z,8.60
2017-11-11T13:00:27.636Z,8.70
2017-11-11T13:02:56.252Z,8.60
2017-11-11T13:05:25.926Z,8.70
2017-11-11T13:07:56.746Z,8.70
2017-11-11T13:10:25.089Z,8.70
2017-11-11T13:12:54.911Z,8.70
2017-11-11T13:15:27.303Z,8.80
2017-11-11T13:17:55.024Z,8.70
2017-11-11T13:20:25.389Z,8.70
2017-11-11T13:22:56.345Z,8.80
2017-11-11T13:25:29.490Z,8.80
2017-11-11T13:27:59.760Z,8.80
2017-11-11T13:30:29.002Z,8.80
2017-11-11T13:32:58.528Z,8.80
2017-11-11T13:35:31.388Z,8.80
2017-11-11T13:38:03.419Z,8.70
2017-11-11T13:40:33.599Z,8.70
2017-11-11T13:43:03.083Z,8.80
2017-11-11T13:45:32.615Z,8.80
2017-11-11T13:48:01.567Z,8.80
2017-11-11T13:50:29.518Z,8.90
2017-11-11T13:52:57.510Z,8.80
2017-11-11T13:55:25.416Z,8.80
2017-11-11T13:57:54.119Z,8.90
2017-11-11T14:00:23.036Z,8.90
2017-11-11T14:02:53.890Z,8.90
2017-11-11T14:05:22.174Z,8.90
2017-11-11T14:07:52.913Z,8.90
2017-11-11T14:10:21.835Z,9.00
2017-11-11T14:12:50.621Z,9.00
2017-11-11T14:15:20.216Z,8.90
2017-11-11T14:17:47.912Z,8.90
2017-11-11T14:20:15.737Z,8.90
2017-11-11T14:22:45.315Z,9.00
2017-11-11T14:25:13.882Z,9.00
2017-11-11T14:27:44.711Z,9.10
2017-11-11T14:30:13.125Z,9.10
2017-11-11T14:32:43.266Z,9.10
2017-11-11T14:35:11.038Z,9.10
2017-11-11T14:37:39.396Z,9.20
2017-11-11T14:40:06.968Z,9.20
2017-11-11T14:42:34.508Z,9.30
2017-11-11T14:45:02.077Z,9.20
2017-11-11T14:47:31.207Z,9.20
2017-11-11T14:50:01.341Z,9.30
2017-11-11T14:52:29.226Z,9.20
2017-11-11T14:54:57.136Z,9.30
2017-11-11T14:57:24.757Z,9.30
2017-11-11T14:59:55.430Z,9.30
2017-11-11T15:02:24.414Z,9.40
2017-11-11T15:04:54.340Z,9.30
2017-11-11T15:07:23.663Z,9.40
2017-11-11T15:09:57.914Z,9.40
2017-11-11T15:12:26.867Z,9.40
2017-11-11T15:14:55.372Z,9.40
2017-11-11T15:17:29.328Z,9.40
2017-11-11T15:19:58.641Z,9.40
2017-11-11T15:22:26.740Z,9.50
2017-11-11T15:24:54.954Z,9.50
2017-11-11T15:27:25.835Z,9.60
2017-11-11T15:29:57.699Z,9.50
2017-11-11T15:32:27.305Z,9.60
2017-11-11T15:34:57.614Z,9.60
2017-11-11T15:37:26.591Z,9.60
2017-11-11T15:39:57.329Z,9.70
2017-11-11T15:42:25.585Z,9.70
2017-11-11T15:44:54.538Z,9.70
2017-11-11T15:47:26.421Z,9.70
2017-11-11T15:49:55.397Z,9.70
2017-11-11T15:52:24.243Z,9.70
2017-11-11T15:54:55.180Z,9.70
2017-11-11T15:57:24.832Z,9.70
2017-11-11T15:59:55.313Z,9.70
2017-11-11T16:02:25.631Z,9.80
2017-11-11T16:04:56.368Z,9.80
2017-11-11T16:07:25.013Z,9.80
2017-11-11T16:09:55.271Z,9.80
2017-11-11T16:12:24.957Z,9.80
2017-11-11T16:14:54.896Z,9.80
2017-11-11T16:17:25.721Z,9.80
2017-11-11T16:19:59.109Z,9.80
2017-11-11T16:22:27.409Z,9.80
2017-11-11T16:24:56.941Z,9.90
2017-11-11T16:27:26.771Z,9.90
2017-11-11T16:29:56.632Z,9.90
2017-11-11T16:32:26.990Z,9.90
2017-11-11T16:34:55.929Z,9.90
2017-11-11T16:37:25.517Z,9.80
2017-11-11T16:39:56.421Z,9.90
2017-11-11T16:42:25.966Z,9.90
2017-11-11T16:44:56.553Z,9.90
2017-11-11T16:47:26.740Z,9.90
2017-11-11T16:49:56.726Z,10.00
2017-11-11T16:52:25.584Z,10.00
2017-11-11T16:54:54.915Z,9.90
2017-11-11T16:57:24.614Z,9.90
2017-11-11T16:59:54.614Z,10.00
2017-11-11T17:02:25.907Z,9.90
2017-11-11T17:04:55.765Z,9.90
2017-11-11T17:07:26.126Z,10.00
2017-11-11T17:09:57.671Z,10.10
2017-11-11T17:12:26.253Z,10.00
2017-11-11T17:14:57.913Z,10.00
2017-11-11T17:17:27.626Z,10.10
2017-11-11T17:19:58.439Z,10.10
2017-11-11T17:22:28.018Z,10.00
2017-11-11T17:24:57.027Z,10.00
2017-11-11T17:27:25.935Z,10.10
2017-11-11T17:29:55.896Z,10.10
2017-11-11T17:32:26.608Z,10.10
2017-11-11T17:34:55.544Z,10.10
2017-11-11T17:37:26.041Z,10.10
2017-11-11T17:39:56.017Z,10.10
2017-11-11T17:42:28.637Z,10.20
2017-11-11T17:44:56.912Z,10.20
2017-11-11T17:47:26.327Z,10.20
2017-11-11T17:49:56.041Z,10.20
2017-11-11T17:52:26.942Z,10.20
2017-11-11T17:54:56.126Z,10.20
2017-11-11T17:57:25.924Z,10.20
2017-11-11T17:59:58.217Z,10.20
2017-11-11T18:02:26.340Z,10.20
2017-11-11T18:04:56.059Z,10.20
2017-11-11T18:07:25.291Z,10.20
2017-11-11T18:09:55.411Z,10.20
2017-11-11T18:12:25.441Z,10.20
2017-11-11T18:14:55.717Z,10.20
2017-11-11T18:17:25.882Z,10.20
2017-11-11T18:19:55.368Z,10.20
2017-11-11T18:22:25.330Z,10.20
2017-11-11T18:24:55.532Z,10.20
2017-11-11T18:27:24.844Z,10.30
2017-11-11T18:29:56.553Z,10.30
2017-11-11T18:32:28.175Z,10.30
2017-11-11T18:34:57.957Z,10.30
2017-11-11T18:37:26.394Z,10.30
2017-11-11T18:39:56.237Z,10.40
2017-11-11T18:42:23.986Z,10.40
2017-11-11T18:44:54.661Z,10.40
2017-11-11T18:47:24.357Z,10.50
2017-11-11T18:49:54.027Z,10.50
2017-11-11T18:52:25.078Z,10.50
2017-11-11T18:54:54.601Z,10.50
2017-11-11T18:57:24.811Z,10.50
2017-11-11T18:59:54.333Z,10.50
2017-11-11T19:02:23.367Z,10.40
2017-11-11T19:04:51.722Z,10.40
2017-11-11T19:07:19.857Z,10.40
2017-11-11T19:09:47.457Z,10.40
2017-11-11T19:12:15.033Z,10.40
2017-11-11T19:14:42.567Z,10.40
2017-11-11T19:17:10.936Z,10.40
2017-11-11T19:19:39.360Z,10.40
2017-11-11T19:22:07.093Z,10.40
2017-11-11T19:24:34.780Z,10.50
2017-11-11T19:27:02.313Z,10.50
2017-11-11T19:29:30.071Z,10.50
2017-11-11T19:31:59.618Z,10.40
2017-11-11T19:34:28.311Z,10.40
2017-11-11T19:36:57.550Z,10.50
2017-11-11T19:39:26.831Z,10.40
2017-11-11T19:41:55.950Z,10.50
2017-11-11T19:44:23.614Z,10.50
2017-11-11T19:46:53.254Z,10.50
2017-11-11T19:49:24.010Z,10.60
2017-11-11T19:51:52.357Z,10.60
2017-11-11T19:54:24.480Z,10.60
2017-11-11T19:56:53.630Z,10.60
2017-11-11T19:59:22.344Z,10.50
2017-11-11T20:01:50.150Z,10.50
2017-11-11T20:04:19.877Z,10.50
2017-11-11T20:06:47.549Z,10.50
2017-11-11T20:09:15.457Z,10.50
2017-11-11T20:11:42.986Z,10.50
2017-11-11T20:14:10.544Z,10.50
2017-11-11T20:16:38.847Z,10.60
2017-11-11T20:19:06.417Z,10.50
2017-11-11T20:21:34.892Z,10.60
2017-11-11T20:24:03.234Z,10.60
2017-11-11T20:26:30.761Z,10.60
2017-11-11T20:29:03.951Z,10.60
2017-11-11T20:31:31.513Z,10.60
2017-11-11T20:33:59.166Z,10.60
2017-11-11T20:36:28.490Z,10.70
2017-11-11T20:38:58.178Z,10.70
2017-11-11T20:41:25.892Z,10.70
2017-11-11T20:43:54.652Z,10.70
2017-11-11T20:46:22.745Z,10.70
2017-11-11T20:48:50.734Z,10.80
2017-11-11T20:51:18.468Z,10.80
2017-11-11T20:53:46.161Z,10.70
2017-11-11T20:56:13.712Z,10.80
2017-11-11T20:58:42.078Z,10.80
2017-11-11T21:01:09.664Z,10.70
2017-11-11T21:03:37.206Z,10.70
2017-11-11T21:06:07.589Z,10.60
2017-11-11T21:08:41.348Z,10.70
2017-11-11T21:11:09.614Z,10.70
2017-11-11T21:13:39.185Z,10.80
2017-11-11T21:16:06.721Z,10.80
2017-11-11T21:18:34.260Z,10.80
2017-11-11T21:21:03.622Z,10.70
2017-11-11T21:23:31.593Z,10.80
2017-11-11T21:25:59.252Z,10.80
2017-11-11T21:28:27.676Z,10.80
2017-11-11T21:30:55.603Z,10.80
2017-11-11T21:33:24.515Z,10.80
2017-11-11T21:35:53.282Z,10.80
2017-11-11T21:38:23.059Z,10.80
2017-11-11T21:40:50.856Z,10.80
2017-11-11T21:43:18.532Z,10.80
2017-11-11T21:45:47.054Z,10.80
2017-11-11T21:48:14.609Z,10.80
2017-11-11T21:50:42.175Z,10.80
2017-11-11T21:53:09.751Z,10.70
2017-11-11T21:55:38.346Z,10.80
2017-11-11T21:58:05.889Z,10.80
2017-11-11T22:00:34.253Z,10.80
2017-11-11T22:03:01.794Z,10.80
2017-11-11T22:05:29.450Z,10.80
2017-11-11T22:07:57.841Z,10.80
2017-11-11T22:10:25.535Z,10.80
2017-11-11T22:12:53.211Z,10.80
2017-11-11T22:15:21.852Z,10.90
2017-11-11T22:17:49.479Z,10.90
2017-11-11T22:20:17.051Z,10.90
2017-11-11T22:22:44.634Z,10.90
2017-11-11T22:25:12.169Z,10.80
2017-11-11T22:27:40.536Z,10.80
2017-11-11T22:30:08.113Z,10.80
2017-11-11T22:32:35.728Z,10.90
2017-11-11T22:35:03.271Z,10.90
2017-11-11T22:37:31.609Z,10.90
2017-11-11T22:39:59.354Z,10.80
2017-11-11T22:42:28.707Z,10.80
2017-11-11T22:44:56.480Z,10.80
2017-11-11T22:47:25.029Z,10.80
2017-11-11T22:49:53.446Z,10.80
2017-11-11T22:52:21.121Z,10.70
2017-11-11T22:54:49.082Z,10.80
2017-11-11T22:57:18.150Z,10.80
2017-11-11T22:59:45.748Z,10.80
2017-11-11T23:02:14.808Z,10.90
2017-11-11T23:04:42.396Z,10.80
2017-11-11T23:07:09.932Z,10.80
2017-11-11T23:09:39.032Z,10.90
2017-11-11T23:12:07.328Z,10.90
2017-11-11T23:14:35.718Z,10.90
2017-11-11T23:17:04.017Z,10.90
2017-11-11T23:19:33.353Z,10.90
2017-11-11T23:22:00.884Z,10.90
2017-11-11T23:24:28.462Z,11.00
2017-11-11T23:26:56.065Z,11.00
2017-11-11T23:29:23.684Z,11.00
2017-11-11T23:31:51.488Z,10.90
2017-11-11T23:34:19.220Z,10.90
2017-11-11T23:36:47.675Z,11.00
2017-11-11T23:39:16.868Z,11.00
2017-11-11T23:41:44.428Z,11.00
2017-11-11T23:44:12.099Z,11.00
2017-11-11T23:46:39.899Z,10.90
2017-11-11T23:49:07.448Z,10.90
2017-11-11T23:51:35.024Z,11.00
2017-11-11T23:54:02.724Z,11.00
2017-11-11T23:56:31.876Z,11.10
2017-11-11T23:58:59.927Z,11.00
